sensor_id;sensor_type;location;lat;lon;timestamp;pressure;altitude;pressure_sealevel;temperature;humidity
13209;BME280;6669;42.678;23.332;2023-01-25T00:01:47;95619.69;;;1.77;100.00
13209;BME280;6669;42.678;23.332;2023-01-25T00:04:16;95608.59;;;1.76;100.00
13209;BME280;6669;42.678;23.332;2023-01-25T00:06:44;95616.66;;;1.85;100.00
13209;BME280;6669;42.678;23.332;2023-01-25T00:09:12;95615.94;;;1.83;100.00
13209;BME280;6669;42.678;23.332;2023-01-25T00:11:41;95618.84;;;1.76;100.00
13209;BME280;6669;42.678;23.332;2023-01-25T00:14:12;95619.69;;;1.77;100.00
13209;BME280;6669;42.678;23.332;2023-01-25T00:16:41;95616.56;;;1.72;100.00
13209;BME280;6669;42.678;23.332;2023-01-25T00:19:10;95615.47;;;1.76;100.00
13209;BME280;6669;42.678;23.332;2023-01-25T00:21:38;95605.59;;;1.70;100.00
13209;BME280;6669;42.678;23.332;2023-01-25T00:24:07;95614.75;;;1.74;100.00
13209;BME280;6669;42.678;23.332;2023-01-25T00:26:37;95608.50;;;1.78;100.00
13209;BME280;6669;42.678;23.332;2023-01-25T00:29:06;95615.00;;;1.69;100.00
13209;BME280;6669;42.678;23.332;2023-01-25T00:31:45;95615.66;;;1.73;100.00
13209;BME280;6669;42.678;23.332;2023-01-25T00:34:42;95607.63;;;1.65;100.00
13209;BME280;6669;42.678;23.332;2023-01-25T00:37:19;95609.81;;;1.71;100.00
13209;BME280;6669;42.678;23.332;2023-01-25T00:39:50;95616.75;;;1.69;100.00
13209;BME280;6669;42.678;23.332;2023-01-25T00:42:19;95612.19;;;1.59;100.00
13209;BME280;6669;42.678;23.332;2023-01-25T00:44:47;95617.50;;;1.56;100.00
13209;BME280;6669;42.678;23.332;2023-01-25T00:47:17;95604.22;;;1.50;100.00
13209;BME280;6669;42.678;23.332;2023-01-25T00:49:45;95598.19;;;1.51;100.00
13209;BME280;6669;42.678;23.332;2023-01-25T00:52:14;95607.25;;;1.56;100.00
13209;BME280;6669;42.678;23.332;2023-01-25T00:54:43;95616.47;;;1.59;100.00
13209;BME280;6669;42.678;23.332;2023-01-25T00:57:11;95616.41;;;1.60;100.00
13209;BME280;6669;42.678;23.332;2023-01-25T00:59:39;95622.44;;;1.59;100.00
13209;BME280;6669;42.678;23.332;2023-01-25T01:02:10;95601.78;;;1.48;100.00
13209;BME280;6669;42.678;23.332;2023-01-25T01:04:40;95621.25;;;1.65;100.00
13209;BME280;6669;42.678;23.332;2023-01-25T01:07:11;95614.31;;;1.67;100.00
13209;BME280;6669;42.678;23.332;2023-01-25T01:09:39;95608.88;;;1.72;100.00
13209;BME280;6669;42.678;23.332;2023-01-25T01:12:07;95610.81;;;1.68;100.00
13209;BME280;6669;42.678;23.332;2023-01-25T01:14:35;95616.56;;;1.72;100.00
13209;BME280;6669;42.678;23.332;2023-01-25T01:17:04;95618.03;;;1.76;100.00
13209;BME280;6669;42.678;23.332;2023-01-25T01:19:32;95614.09;;;1.70;100.00
13209;BME280;6669;42.678;23.332;2023-01-25T01:22:01;95590.22;;;1.41;100.00
13209;BME280;6669;42.678;23.332;2023-01-25T01:24:29;95611.56;;;1.56;100.00
13209;BME280;6669;42.678;23.332;2023-01-25T01:26:59;95608.53;;;1.63;100.00
13209;BME280;6669;42.678;23.332;2023-01-25T01:29:27;95604.31;;;1.62;100.00
13209;BME280;6669;42.678;23.332;2023-01-25T01:31:55;95606.16;;;1.60;100.00
13209;BME280;6669;42.678;23.332;2023-01-25T01:34:23;95595.34;;;1.55;100.00
13209;BME280;6669;42.678;23.332;2023-01-25T01:36:51;95600.47;;;1.55;100.00
13209;BME280;6669;42.678;23.332;2023-01-25T01:39:21;95588.75;;;1.51;100.00
13209;BME280;6669;42.678;23.332;2023-01-25T01:41:49;95591.69;;;1.59;100.00
13209;BME280;6669;42.678;23.332;2023-01-25T01:44:20;95594.63;;;1.53;100.00
13209;BME280;6669;42.678;23.332;2023-01-25T01:46:52;95587.22;;;1.49;100.00
13209;BME280;6669;42.678;23.332;2023-01-25T01:49:23;95591.78;;;1.58;100.00
13209;BME280;6669;42.678;23.332;2023-01-25T01:51:56;95566.38;;;1.40;100.00
13209;BME280;6669;42.678;23.332;2023-01-25T01:54:29;95587.28;;;1.61;100.00
13209;BME280;6669;42.678;23.332;2023-01-25T01:57:04;95586.09;;;1.53;100.00
13209;BME280;6669;42.678;23.332;2023-01-25T01:59:35;95590.03;;;1.58;100.00
13209;BME280;6669;42.678;23.332;2023-01-25T02:02:04;95581.38;;;1.46;100.00
13209;BME280;6669;42.678;23.332;2023-01-25T02:04:33;95594.09;;;1.48;100.00
13209;BME280;6669;42.678;23.332;2023-01-25T02:07:04;95585.09;;;1.55;100.00
13209;BME280;6669;42.678;23.332;2023-01-25T02:09:38;95586.19;;;1.51;100.00
13209;BME280;6669;42.678;23.332;2023-01-25T02:12:08;95583.09;;;1.46;100.00
13209;BME280;6669;42.678;23.332;2023-01-25T02:14:40;95590.88;;;1.44;100.00
13209;BME280;6669;42.678;23.332;2023-01-25T02:17:11;95583.63;;;1.51;100.00
13209;BME280;6669;42.678;23.332;2023-01-25T02:19:46;95592.59;;;1.58;100.00
13209;BME280;6669;42.678;23.332;2023-01-25T02:22:19;95588.22;;;1.60;100.00
13209;BME280;6669;42.678;23.332;2023-01-25T02:24:58;95589.94;;;1.60;100.00
13209;BME280;6669;42.678;23.332;2023-01-25T02:27:28;95588.66;;;1.53;100.00
13209;BME280;6669;42.678;23.332;2023-01-25T02:29:57;95580.16;;;1.52;100.00
13209;BME280;6669;42.678;23.332;2023-01-25T02:32:26;95578.97;;;1.58;100.00
13209;BME280;6669;42.678;23.332;2023-01-25T02:34:54;95582.09;;;1.63;100.00
13209;BME280;6669;42.678;23.332;2023-01-25T02:37:22;95575.13;;;1.65;100.00
13209;BME280;6669;42.678;23.332;2023-01-25T02:39:50;95580.13;;;1.67;100.00
13209;BME280;6669;42.678;23.332;2023-01-25T02:42:19;95584.34;;;1.68;100.00
13209;BME280;6669;42.678;23.332;2023-01-25T02:44:47;95577.97;;;1.60;100.00
13209;BME280;6669;42.678;23.332;2023-01-25T02:47:17;95567.91;;;1.57;100.00
13209;BME280;6669;42.678;23.332;2023-01-25T02:49:45;95575.00;;;1.67;100.00
13209;BME280;6669;42.678;23.332;2023-01-25T02:52:13;95565.59;;;1.53;100.00
13209;BME280;6669;42.678;23.332;2023-01-25T02:54:40;95579.13;;;1.69;100.00
13209;BME280;6669;42.678;23.332;2023-01-25T02:57:09;95577.69;;;1.65;100.00
13209;BME280;6669;42.678;23.332;2023-01-25T02:59:38;95579.53;;;1.63;100.00
13209;BME280;6669;42.678;23.332;2023-01-25T03:02:06;95574.56;;;1.60;100.00
13209;BME280;6669;42.678;23.332;2023-01-25T03:04:34;95581.63;;;1.56;100.00
13209;BME280;6669;42.678;23.332;2023-01-25T03:07:02;95582.72;;;1.52;100.00
13209;BME280;6669;42.678;23.332;2023-01-25T03:09:30;95585.28;;;1.52;100.00
13209;BME280;6669;42.678;23.332;2023-01-25T03:11:58;95586.09;;;1.53;100.00
13209;BME280;6669;42.678;23.332;2023-01-25T03:14:26;95579.97;;;1.41;100.00
13209;BME280;6669;42.678;23.332;2023-01-25T03:16:56;95574.31;;;1.36;100.00
13209;BME280;6669;42.678;23.332;2023-01-25T03:19:24;95582.19;;;1.47;100.00
13209;BME280;6669;42.678;23.332;2023-01-25T03:21:52;95578.53;;;1.37;100.00
13209;BME280;6669;42.678;23.332;2023-01-25T03:24:20;95575.50;;;1.44;100.00
13209;BME280;6669;42.678;23.332;2023-01-25T03:26:48;95564.50;;;1.42;100.00
13209;BME280;6669;42.678;23.332;2023-01-25T03:29:33;95576.78;;;1.37;100.00
13209;BME280;6669;42.678;23.332;2023-01-25T03:32:03;95573.22;;;1.40;100.00
13209;BME280;6669;42.678;23.332;2023-01-25T03:34:31;95576.59;;;1.40;100.00
13209;BME280;6669;42.678;23.332;2023-01-25T03:36:59;95578.59;;;1.50;100.00
13209;BME280;6669;42.678;23.332;2023-01-25T03:39:27;95581.91;;;1.52;100.00
13209;BME280;6669;42.678;23.332;2023-01-25T03:41:55;95576.69;;;1.53;100.00
13209;BME280;6669;42.678;23.332;2023-01-25T03:44:23;95571.03;;;1.48;100.00
13209;BME280;6669;42.678;23.332;2023-01-25T03:46:51;95572.75;;;1.47;100.00
13209;BME280;6669;42.678;23.332;2023-01-25T03:49:21;95581.19;;;1.35;100.00
13209;BME280;6669;42.678;23.332;2023-01-25T03:51:48;95566.25;;;1.13;100.00
13209;BME280;6669;42.678;23.332;2023-01-25T03:54:16;95570.84;;;1.22;100.00
13209;BME280;6669;42.678;23.332;2023-01-25T03:56:44;95570.84;;;1.22;100.00
13209;BME280;6669;42.678;23.332;2023-01-25T03:59:12;95569.91;;;1.23;100.00
13209;BME280;6669;42.678;23.332;2023-01-25T04:01:40;95564.44;;;1.29;100.00
13209;BME280;6669;42.678;23.332;2023-01-25T04:04:11;95563.53;;;1.30;100.00
13209;BME280;6669;42.678;23.332;2023-01-25T04:06:40;95557.13;;;1.38;100.00
13209;BME280;6669;42.678;23.332;2023-01-25T04:09:08;95560.50;;;1.38;100.00
13209;BME280;6669;42.678;23.332;2023-01-25T04:11:36;95545.59;;;1.30;100.00
13209;BME280;6669;42.678;23.332;2023-01-25T04:14:04;95561.59;;;1.34;100.00
13209;BME280;6669;42.678;23.332;2023-01-25T04:16:32;95557.13;;;1.38;100.00
13209;BME280;6669;42.678;23.332;2023-01-25T04:19:01;95559.59;;;1.39;100.00
13209;BME280;6669;42.678;23.332;2023-01-25T04:21:30;95557.28;;;1.35;100.00
13209;BME280;6669;42.678;23.332;2023-01-25T04:23:59;95561.59;;;1.34;100.00
13209;BME280;6669;42.678;23.332;2023-01-25T04:26:27;95560.88;;;1.46;100.00
13209;BME280;6669;42.678;23.332;2023-01-25T04:28:55;95559.03;;;1.49;100.00
13209;BME280;6669;42.678;23.332;2023-01-25T04:31:23;95561.88;;;1.44;100.00
13209;BME280;6669;42.678;23.332;2023-01-25T04:33:51;95565.16;;;1.46;100.00
13209;BME280;6669;42.678;23.332;2023-01-25T04:36:19;95569.47;;;1.45;100.00
13209;BME280;6669;42.678;23.332;2023-01-25T04:38:47;95569.75;;;1.41;100.00
13209;BME280;6669;42.678;23.332;2023-01-25T04:41:17;95571.50;;;1.40;100.00
13209;BME280;6669;42.678;23.332;2023-01-25T04:43:45;95570.13;;;1.49;100.00
13209;BME280;6669;42.678;23.332;2023-01-25T04:46:13;95571.94;;;1.47;100.00
13209;BME280;6669;42.678;23.332;2023-01-25T04:48:41;95576.25;;;1.46;100.00
13209;BME280;6669;42.678;23.332;2023-01-25T04:51:12;95573.94;;;1.42;100.00
13209;BME280;6669;42.678;23.332;2023-01-25T04:53:40;95562.97;;;1.54;100.00
13209;BME280;6669;42.678;23.332;2023-01-25T04:56:09;95573.22;;;1.54;100.00
13209;BME280;6669;42.678;23.332;2023-01-25T04:58:39;95566.16;;;1.58;100.00
13209;BME280;6669;42.678;23.332;2023-01-25T05:01:07;95576.69;;;1.53;100.00
13209;BME280;6669;42.678;23.332;2023-01-25T05:03:36;95569.47;;;1.45;100.00
13209;BME280;6669;42.678;23.332;2023-01-25T05:06:07;95560.78;;;1.48;100.00
13209;BME280;6669;42.678;23.332;2023-01-25T05:08:35;95564.44;;;1.44;100.00
13209;BME280;6669;42.678;23.332;2023-01-25T05:11:03;95564.25;;;1.47;100.00
13209;BME280;6669;42.678;23.332;2023-01-25T05:13:32;95567.72;;;1.60;100.00
13209;BME280;6669;42.678;23.332;2023-01-25T05:16:01;95571.47;;;1.55;100.00
13209;BME280;6669;42.678;23.332;2023-01-25T05:18:29;95568.44;;;1.62;100.00
13209;BME280;6669;42.678;23.332;2023-01-25T05:21:13;95572.84;;;1.60;100.00
13209;BME280;6669;42.678;23.332;2023-01-25T05:23:55;95539.38;;;1.49;100.00
13209;BME280;6669;42.678;23.332;2023-01-25T05:26:23;95552.72;;;1.54;100.00
13209;BME280;6669;42.678;23.332;2023-01-25T05:29:09;95545.75;;;1.56;100.00
13209;BME280;6669;42.678;23.332;2023-01-25T05:31:41;95565.50;;;1.69;100.00
13209;BME280;6669;42.678;23.332;2023-01-25T05:34:10;95568.88;;;1.69;100.00
13209;BME280;6669;42.678;23.332;2023-01-25T05:36:39;95563.84;;;1.68;100.00
13209;BME280;6669;42.678;23.332;2023-01-25T05:39:07;95563.63;;;1.58;100.00
13209;BME280;6669;42.678;23.332;2023-01-25T05:41:35;95573.47;;;1.64;100.00
13209;BME280;6669;42.678;23.332;2023-01-25T05:44:03;95578.53;;;1.66;100.00
13209;BME280;6669;42.678;23.332;2023-01-25T05:46:31;95580.25;;;1.65;100.00
13209;BME280;6669;42.678;23.332;2023-01-25T05:49:01;95579.16;;;1.55;100.00
13209;BME280;6669;42.678;23.332;2023-01-25T05:51:29;95575.25;;;1.49;100.00
13209;BME280;6669;42.678;23.332;2023-01-25T05:53:57;95573.38;;;1.51;100.00
13209;BME280;6669;42.678;23.332;2023-01-25T05:56:25;95585.56;;;1.62;100.00
13209;BME280;6669;42.678;23.332;2023-01-25T05:58:53;95581.44;;;1.59;100.00
13209;BME280;6669;42.678;23.332;2023-01-25T06:01:22;95586.22;;;1.66;100.00
13209;BME280;6669;42.678;23.332;2023-01-25T06:03:50;95583.91;;;1.61;100.00
13209;BME280;6669;42.678;23.332;2023-01-25T06:06:20;95565.69;;;1.51;100.00
13209;BME280;6669;42.678;23.332;2023-01-25T06:08:49;95566.59;;;1.50;100.00
13209;BME280;6669;42.678;23.332;2023-01-25T06:11:20;95579.59;;;1.61;100.00
13209;BME280;6669;42.678;23.332;2023-01-25T06:13:48;95591.13;;;1.69;100.00
13209;BME280;6669;42.678;23.332;2023-01-25T06:16:17;95586.81;;;1.69;100.00
13209;BME280;6669;42.678;23.332;2023-01-25T06:18:46;95592.94;;;1.67;100.00
13209;BME280;6669;42.678;23.332;2023-01-25T06:21:14;95596.25;;;1.69;100.00
13209;BME280;6669;42.678;23.332;2023-01-25T06:23:43;95595.91;;;1.60;100.00
13209;BME280;6669;42.678;23.332;2023-01-25T06:26:13;95590.69;;;1.62;100.00
13209;BME280;6669;42.678;23.332;2023-01-25T06:28:42;95592.63;;;1.44;100.00
13209;BME280;6669;42.678;23.332;2023-01-25T06:31:11;95587.50;;;1.44;100.00
13209;BME280;6669;42.678;23.332;2023-01-25T06:33:40;95579.06;;;1.42;100.00
13209;BME280;6669;42.678;23.332;2023-01-25T06:36:10;95595.16;;;1.58;100.00
13209;BME280;6669;42.678;23.332;2023-01-25T06:38:39;95593.16;;;1.49;100.00
13209;BME280;6669;42.678;23.332;2023-01-25T06:41:10;95595.09;;;1.45;100.00
13209;BME280;6669;42.678;23.332;2023-01-25T06:43:38;95596.28;;;1.54;100.00
13209;BME280;6669;42.678;23.332;2023-01-25T06:46:08;95589.50;;;1.53;100.00
13209;BME280;6669;42.678;23.332;2023-01-25T06:48:38;95590.78;;;1.60;100.00
13209;BME280;6669;42.678;23.332;2023-01-25T06:51:09;95581.38;;;1.46;100.00
13209;BME280;6669;42.678;23.332;2023-01-25T06:53:39;95586.09;;;1.53;100.00
13209;BME280;6669;42.678;23.332;2023-01-25T06:56:11;95591.69;;;1.45;100.00
13209;BME280;6669;42.678;23.332;2023-01-25T06:58:40;95592.59;;;1.58;100.00
13209;BME280;6669;42.678;23.332;2023-01-25T07:01:11;95578.50;;;1.51;100.00
13209;BME280;6669;42.678;23.332;2023-01-25T07:03:40;95582.53;;;1.55;100.00
13209;BME280;6669;42.678;23.332;2023-01-25T07:06:10;95584.19;;;1.56;100.00
13209;BME280;6669;42.678;23.332;2023-01-25T07:08:38;95589.59;;;1.66;100.00
13209;BME280;6669;42.678;23.332;2023-01-25T07:11:09;95580.72;;;1.57;100.00
13209;BME280;6669;42.678;23.332;2023-01-25T07:13:40;95579.34;;;1.52;100.00
13209;BME280;6669;42.678;23.332;2023-01-25T07:16:11;95577.41;;;1.55;100.00
13209;BME280;6669;42.678;23.332;2023-01-25T07:18:39;95581.38;;;1.46;100.00
13209;BME280;6669;42.678;23.332;2023-01-25T07:21:11;95593.91;;;1.66;100.00
13209;BME280;6669;42.678;23.332;2023-01-25T07:23:39;95592.59;;;1.58;100.00
13209;BME280;6669;42.678;23.332;2023-01-25T07:26:14;95584.91;;;1.58;100.00
13209;BME280;6669;42.678;23.332;2023-01-25T07:28:43;95599.09;;;1.64;100.00
13209;BME280;6669;42.678;23.332;2023-01-25T07:31:12;95601.88;;;1.46;100.00
13209;BME280;6669;42.678;23.332;2023-01-25T07:33:41;95600.41;;;1.57;100.00
13209;BME280;6669;42.678;23.332;2023-01-25T07:36:10;95605.25;;;1.47;100.00
13209;BME280;6669;42.678;23.332;2023-01-25T07:38:38;95604.97;;;1.52;100.00
13209;BME280;6669;42.678;23.332;2023-01-25T07:41:06;95600.38;;;1.42;100.00
13209;BME280;6669;42.678;23.332;2023-01-25T07:43:35;95607.44;;;1.24;100.00
13209;BME280;6669;42.678;23.332;2023-01-25T07:46:05;95611.00;;;1.36;100.00
13209;BME280;6669;42.678;23.332;2023-01-25T07:48:33;95611.28;;;1.32;100.00
13209;BME280;6669;42.678;23.332;2023-01-25T07:51:03;95610.72;;;1.41;100.00
13209;BME280;6669;42.678;23.332;2023-01-25T07:53:49;95616.59;;;1.43;100.00
13209;BME280;6669;42.678;23.332;2023-01-25T07:56:20;95614.03;;;1.43;100.00
13209;BME280;6669;42.678;23.332;2023-01-25T07:58:51;95612.13;;;1.46;100.00
13209;BME280;6669;42.678;23.332;2023-01-25T08:01:20;95611.63;;;1.40;100.00
13209;BME280;6669;42.678;23.332;2023-01-25T08:03:49;95608.00;;;1.44;100.00
13209;BME280;6669;42.678;23.332;2023-01-25T08:06:22;95602.47;;;1.50;100.00
13209;BME280;6669;42.678;23.332;2023-01-25T08:08:53;95586.31;;;1.50;100.00
13209;BME280;6669;42.678;23.332;2023-01-25T08:11:23;95603.50;;;1.62;100.00
13209;BME280;6669;42.678;23.332;2023-01-25T08:13:54;95604.97;;;1.66;100.00
13209;BME280;6669;42.678;23.332;2023-01-25T08:16:25;95601.38;;;1.69;100.00
13209;BME280;6669;42.678;23.332;2023-01-25T08:18:55;95601.84;;;1.61;100.00
13209;BME280;6669;42.678;23.332;2023-01-25T08:21:24;95601.75;;;1.62;100.00
13209;BME280;6669;42.678;23.332;2023-01-25T08:23:56;95606.22;;;1.59;100.00
13209;BME280;6669;42.678;23.332;2023-01-25T08:26:25;95589.59;;;1.52;100.00
13209;BME280;6669;42.678;23.332;2023-01-25T08:28:55;95599.94;;;1.65;100.00
13209;BME280;6669;42.678;23.332;2023-01-25T08:31:24;95594.81;;;1.65;100.00
13209;BME280;6669;42.678;23.332;2023-01-25T08:33:53;95593.91;;;1.66;100.00
13209;BME280;6669;42.678;23.332;2023-01-25T08:36:21;95599.38;;;1.74;100.00
13209;BME280;6669;42.678;23.332;2023-01-25T08:38:53;95601.00;;;1.75;100.00
13209;BME280;6669;42.678;23.332;2023-01-25T08:41:23;95600.66;;;1.81;100.00
13209;BME280;6669;42.678;23.332;2023-01-25T08:43:52;95594.88;;;1.77;100.00
13209;BME280;6669;42.678;23.332;2023-01-25T08:46:23;95590.28;;;1.83;100.00
13209;BME280;6669;42.678;23.332;2023-01-25T08:48:56;95592.41;;;1.76;100.00
13209;BME280;6669;42.678;23.332;2023-01-25T08:51:24;95582.88;;;1.78;100.00
13209;BME280;6669;42.678;23.332;2023-01-25T08:53:52;95574.69;;;1.86;100.00
13209;BME280;6669;42.678;23.332;2023-01-25T08:56:21;95588.81;;;1.93;100.00
13209;BME280;6669;42.678;23.332;2023-01-25T08:58:49;95595.00;;;2.03;100.00
13209;BME280;6669;42.678;23.332;2023-01-25T09:01:18;95575.50;;;2.01;100.00
13209;BME280;6669;42.678;23.332;2023-01-25T09:03:49;95597.09;;;2.11;100.00
13209;BME280;6669;42.678;23.332;2023-01-25T09:06:18;95595.97;;;2.15;100.00
13209;BME280;6669;42.678;23.332;2023-01-25T09:08:46;95580.09;;;1.95;100.00
13209;BME280;6669;42.678;23.332;2023-01-25T09:11:16;95589.88;;;2.03;100.00
13209;BME280;6669;42.678;23.332;2023-01-25T09:13:44;95587.16;;;1.92;100.00
13209;BME280;6669;42.678;23.332;2023-01-25T09:16:16;95583.56;;;1.94;100.00
13209;BME280;6669;42.678;23.332;2023-01-25T09:18:47;95583.09;;;2.02;100.00
13209;BME280;6669;42.678;23.332;2023-01-25T09:21:17;95574.91;;;2.10;100.00
13209;BME280;6669;42.678;23.332;2023-01-25T09:23:47;95578.13;;;2.13;100.00
13209;BME280;6669;42.678;23.332;2023-01-25T09:26:30;95577.94;;;2.17;100.00
13209;BME280;6669;42.678;23.332;2023-01-25T09:28:58;95576.03;;;2.06;100.00
13209;BME280;6669;42.678;23.332;2023-01-25T09:31:26;95570.53;;;2.12;100.00
13209;BME280;6669;42.678;23.332;2023-01-25T09:33:56;95566.13;;;2.14;100.00
13209;BME280;6669;42.678;23.332;2023-01-25T09:36:24;95564.38;;;2.15;100.00
13209;BME280;6669;42.678;23.332;2023-01-25T09:38:54;95545.25;;;2.06;100.00
13209;BME280;6669;42.678;23.332;2023-01-25T09:41:33;95555.66;;;2.17;100.00
13209;BME280;6669;42.678;23.332;2023-01-25T09:44:15;95543.47;;;2.21;100.00
13209;BME280;6669;42.678;23.332;2023-01-25T09:46:50;95538.41;;;2.06;100.00
13209;BME280;6669;42.678;23.332;2023-01-25T09:49:29;95542.22;;;2.13;100.00
13209;BME280;6669;42.678;23.332;2023-01-25T09:52:13;95534.75;;;2.23;100.00
13209;BME280;6669;42.678;23.332;2023-01-25T09:54:46;95518.09;;;2.16;100.00
13209;BME280;6669;42.678;23.332;2023-01-25T09:57:18;95520.91;;;2.26;100.00
13209;BME280;6669;42.678;23.332;2023-01-25T09:59:49;95520.81;;;2.27;100.00
13209;BME280;6669;42.678;23.332;2023-01-25T10:02:32;95517.34;;;2.41;100.00
13209;BME280;6669;42.678;23.332;2023-01-25T10:05:09;95520.03;;;2.53;100.00
13209;BME280;6669;42.678;23.332;2023-01-25T10:07:48;95503.50;;;2.57;100.00
13209;BME280;6669;42.678;23.332;2023-01-25T10:10:23;95510.69;;;2.65;100.00
13209;BME280;6669;42.678;23.332;2023-01-25T10:12:54;95512.88;;;2.71;100.00
13209;BME280;6669;42.678;23.332;2023-01-25T10:15:30;95501.16;;;2.80;100.00
13209;BME280;6669;42.678;23.332;2023-01-25T10:18:04;95496.88;;;2.93;100.00
13209;BME280;6669;42.678;23.332;2023-01-25T10:20:43;95499.03;;;2.99;100.00
13209;BME280;6669;42.678;23.332;2023-01-25T10:23:32;95487.22;;;2.97;100.00
13209;BME280;6669;42.678;23.332;2023-01-25T10:26:10;95493.88;;;3.12;100.00
13209;BME280;6669;42.678;23.332;2023-01-25T10:28:47;95490.28;;;3.02;100.00
13209;BME280;6669;42.678;23.332;2023-01-25T10:31:22;95487.72;;;3.02;100.00
13209;BME280;6669;42.678;23.332;2023-01-25T10:33:56;95486.78;;;3.16;100.00
13209;BME280;6669;42.678;23.332;2023-01-25T10:36:29;95476.81;;;3.11;100.00
13209;BME280;6669;42.678;23.332;2023-01-25T10:38:57;95486.03;;;3.26;100.00
13209;BME280;6669;42.678;23.332;2023-01-25T10:41:33;95471.66;;;3.24;100.00
13209;BME280;6669;42.678;23.332;2023-01-25T10:44:03;95467.41;;;3.36;100.00
13209;BME280;6669;42.678;23.332;2023-01-25T10:46:56;95471.44;;;3.40;100.00
13209;BME280;6669;42.678;23.332;2023-01-25T10:49:28;95474.00;;;3.40;100.00
13209;BME280;6669;42.678;23.332;2023-01-25T10:52:17;95457.03;;;3.37;100.00
13209;BME280;6669;42.678;23.332;2023-01-25T10:54:46;95460.84;;;3.32;100.00
13209;BME280;6669;42.678;23.332;2023-01-25T10:57:17;95447.09;;;3.20;100.00
13209;BME280;6669;42.678;23.332;2023-01-25T10:59:48;95456.00;;;3.27;100.00
13209;BME280;6669;42.678;23.332;2023-01-25T11:02:34;95453.44;;;3.27;100.00
13209;BME280;6669;42.678;23.332;2023-01-25T11:05:23;95451.56;;;3.42;100.00
13209;BME280;6669;42.678;23.332;2023-01-25T11:07:54;95443.16;;;3.40;100.00
13209;BME280;6669;42.678;23.332;2023-01-25T11:10:30;95433.44;;;3.56;100.00
13209;BME280;6669;42.678;23.332;2023-01-25T11:13:18;95434.63;;;3.64;100.00
13209;BME280;6669;42.678;23.332;2023-01-25T11:15:48;95443.44;;;3.72;100.00
13209;BME280;6669;42.678;23.332;2023-01-25T11:18:20;95431.44;;;3.84;100.00
13209;BME280;6669;42.678;23.332;2023-01-25T11:21:03;95428.50;;;3.78;100.00
13209;BME280;6669;42.678;23.332;2023-01-25T11:23:33;95425.44;;;3.72;100.00
13209;BME280;6669;42.678;23.332;2023-01-25T11:26:11;95422.31;;;3.80;100.00
13209;BME280;6669;42.678;23.332;2023-01-25T11:28:40;95422.88;;;3.72;100.00
13209;BME280;6669;42.678;23.332;2023-01-25T11:31:10;95423.34;;;3.78;100.00
13209;BME280;6669;42.678;23.332;2023-01-25T11:33:40;95413.91;;;3.78;100.00
13209;BME280;6669;42.678;23.332;2023-01-25T11:36:15;95400.50;;;3.86;100.00
13209;BME280;6669;42.678;23.332;2023-01-25T11:38:57;95425.41;;;3.97;100.00
13209;BME280;6669;42.678;23.332;2023-01-25T11:41:37;95414.31;;;3.96;100.00
13209;BME280;6669;42.678;23.332;2023-01-25T11:44:36;95402.31;;;4.08;100.00
13209;BME280;6669;42.678;23.332;2023-01-25T11:47:15;95386.34;;;3.91;100.00
13209;BME280;6669;42.678;23.332;2023-01-25T11:49:58;95389.41;;;3.97;100.00
13209;BME280;6669;42.678;23.332;2023-01-25T11:52:34;95381.31;;;3.90;100.00
13209;BME280;6669;42.678;23.332;2023-01-25T11:55:18;95380.41;;;3.91;100.00
13209;BME280;6669;42.678;23.332;2023-01-25T11:58:10;95379.78;;;3.87;100.00
13209;BME280;6669;42.678;23.332;2023-01-25T12:01:01;95377.47;;;3.96;100.00
13209;BME280;6669;42.678;23.332;2023-01-25T12:06:48;95372.56;;;3.92;100.00
13209;BME280;6669;42.678;23.332;2023-01-25T12:09:47;95360.94;;;3.75;100.00
13209;BME280;6669;42.678;23.332;2023-01-25T12:12:39;95367.13;;;3.73;100.00
13209;BME280;6669;42.678;23.332;2023-01-25T12:18:30;95356.38;;;3.79;100.00
13209;BME280;6669;42.678;23.332;2023-01-25T12:21:07;95358.25;;;3.77;100.00
13209;BME280;6669;42.678;23.332;2023-01-25T12:23:51;95359.78;;;3.80;100.00
13209;BME280;6669;42.678;23.332;2023-01-25T12:26:24;95352.66;;;3.83;100.00
13209;BME280;6669;42.678;23.332;2023-01-25T12:29:02;95333.94;;;3.81;100.00
13209;BME280;6669;42.678;23.332;2023-01-25T12:31:39;95347.53;;;3.83;100.00
13209;BME280;6669;42.678;23.332;2023-01-25T12:34:13;95325.72;;;3.65;100.00
13209;BME280;6669;42.678;23.332;2023-01-25T12:36:46;95350.16;;;3.70;100.00
13209;BME280;6669;42.678;23.332;2023-01-25T12:39:19;95341.03;;;3.66;100.00
13209;BME280;6669;42.678;23.332;2023-01-25T12:41:53;95341.38;;;3.62;100.00
13209;BME280;6669;42.678;23.332;2023-01-25T12:44:27;95344.63;;;3.64;100.00
13209;BME280;6669;42.678;23.332;2023-01-25T12:47:01;95346.97;;;3.55;100.00
13209;BME280;6669;42.678;23.332;2023-01-25T12:49:36;95344.03;;;3.60;100.00
13209;BME280;6669;42.678;23.332;2023-01-25T12:52:10;95333.66;;;3.62;100.00
13209;BME280;6669;42.678;23.332;2023-01-25T12:54:44;95334.00;;;3.57;100.00
13209;BME280;6669;42.678;23.332;2023-01-25T12:57:20;95340.50;;;3.50;100.00
13209;BME280;6669;42.678;23.332;2023-01-25T12:59:58;95324.25;;;3.49;100.00
13209;BME280;6669;42.678;23.332;2023-01-25T13:02:41;95330.09;;;3.51;100.00
13209;BME280;6669;42.678;23.332;2023-01-25T13:05:24;95326.94;;;3.48;100.00
13209;BME280;6669;42.678;23.332;2023-01-25T13:07:59;95321.41;;;3.41;100.00
13209;BME280;6669;42.678;23.332;2023-01-25T13:10:33;95314.44;;;3.43;100.00
13209;BME280;6669;42.678;23.332;2023-01-25T13:13:19;95312.72;;;3.31;100.00
13209;BME280;6669;42.678;23.332;2023-01-25T13:15:50;95321.53;;;3.39;100.00
13209;BME280;6669;42.678;23.332;2023-01-25T13:18:39;95307.47;;;3.32;100.00
13209;BME280;6669;42.678;23.332;2023-01-25T13:21:39;95301.84;;;3.27;100.00
13209;BME280;6669;42.678;23.332;2023-01-25T13:24:25;95305.69;;;3.21;100.00
13209;BME280;6669;42.678;23.332;2023-01-25T13:27:02;95304.41;;;3.27;100.00
13209;BME280;6669;42.678;23.332;2023-01-25T13:30:00;95299.13;;;3.17;100.00
13209;BME280;6669;42.678;23.332;2023-01-25T13:33:03;95307.53;;;3.19;100.00